Time;durP1;ratioP1;P1;durP2;ratioP2;P2;SDS_P1;SDS_P2;PMS_P1;PMS_P2;Temp;Humidity;BMP_temperature;BMP_pressure;BME280_temperature;BME280_humidity;BME280_pressure;Samples;Min_cycle;Max_cycle;Signal;HPM_P1;HPM_P2
2023/01/09 00:00:48;;;;;;;;;;;;;;;17.77;69.12;99369.52;2329941;76;50250;-76
2023/01/09 00:03:50;;;;;;;;;;;;;;;17.77;69.05;99364.17;2304975;76;52389;-75
2023/01/09 00:06:55;;;;;;;;;;;;;;;17.77;69.16;99363.66;2329896;76;50421;-75
2023/01/09 00:09:56;;;;;;;;;;;;;;;17.77;69.01;99360.98;2335502;74;50428;-75
2023/01/09 00:12:58;;;;;;;;;;;;;;;17.77;69.03;99360.98;2362774;73;50267;-76
2023/01/09 00:15:59;;;;;;;;;;;;;;;17.76;69.09;99359.87;2344590;74;51141;-76
2023/01/09 00:19:01;;;;;;;;;;;;;;;17.78;69.01;99347.11;2368131;74;50499;-75
2023/01/09 00:22:03;;;;;;;;;;;;;;;17.80;68.91;99348.58;2365713;74;52156;-76
2023/01/09 00:25:06;;;;;;;;;;;;;;;17.79;68.98;99352.75;2365776;74;50332;-75
2023/01/09 00:28:07;;;;;;;;;;;;;;;17.78;68.90;99344.44;2367971;74;49614;-75
2023/01/09 00:31:09;;;;;;;;;;;;;;;17.79;68.92;99351.42;2365977;74;50352;-75
2023/01/09 00:34:11;;;;;;;;;;;;;;;17.78;69.23;99337.75;2365685;74;50789;-75
2023/01/09 00:37:12;;;;;;;;;;;;;;;17.79;69.06;99336.70;2365824;74;51404;-75
2023/01/09 00:40:14;;;;;;;;;;;;;;;17.77;68.93;99342.77;2342329;74;52948;-75
2023/01/09 00:43:16;;;;;;;;;;;;;;;17.76;68.96;99331.78;2382661;74;51508;-75
2023/01/09 00:46:17;;;;;;;;;;;;;;;17.75;69.00;99322.09;2365864;74;51516;-75
2023/01/09 00:49:19;;;;;;;;;;;;;;;17.70;69.04;99316.55;2365967;75;51320;-75
2023/01/09 00:52:21;;;;;;;;;;;;;;;17.71;69.08;99319.55;2340273;75;52799;-75
2023/01/09 00:55:22;;;;;;;;;;;;;;;17.76;69.07;99313.05;2365614;74;50770;-75
2023/01/09 00:58:24;;;;;;;;;;;;;;;17.79;69.02;99308.61;2365724;75;51418;-75
2023/01/09 01:01:25;;;;;;;;;;;;;;;17.78;68.88;99306.98;2365805;75;51536;-76
2023/01/09 01:07:46;;;;;;;;;;;;;;;17.77;69.10;99291.94;2359904;75;24491;-75
2023/01/09 01:10:48;;;;;;;;;;;;;;;17.76;68.94;99287.63;2300692;74;52312;-75
2023/01/09 01:13:50;;;;;;;;;;;;;;;17.76;69.08;99285.77;2384566;74;49903;-75
2023/01/09 01:16:51;;;;;;;;;;;;;;;17.76;69.07;99285.77;2365727;74;50866;-75
2023/01/09 01:19:53;;;;;;;;;;;;;;;17.76;69.11;99288.97;2376848;73;49548;-75
2023/01/09 01:22:54;;;;;;;;;;;;;;;17.74;68.98;99285.67;2411692;73;50392;-75
2023/01/09 01:25:56;;;;;;;;;;;;;;;17.74;69.12;99282.48;2405966;73;50392;-75
2023/01/09 01:29:01;;;;;;;;;;;;;;;17.76;69.19;99284.44;2377807;73;51178;-76
2023/01/09 01:32:02;;;;;;;;;;;;;;;17.78;69.23;99279.70;2402700;73;50431;-75
2023/01/09 01:35:04;;;;;;;;;;;;;;;17.77;69.59;99276.70;2400788;74;50776;-75
2023/01/09 01:38:06;;;;;;;;;;;;;;;17.76;69.52;99283.09;2396081;74;49765;-76
2023/01/09 01:41:07;;;;;;;;;;;;;;;17.80;69.42;99280.84;2348331;73;51235;-75
2023/01/09 01:44:27;;;;;;;;;;;;;;;17.78;69.68;99271.67;2365591;73;50605;-76
2023/01/09 01:47:30;;;;;;;;;;;;;;;17.78;69.57;99274.88;2365772;74;51549;-76
2023/01/09 01:50:40;;;;;;;;;;;;;;;17.78;69.41;99278.89;2365951;75;50371;-76
2023/01/09 01:53:43;;;;;;;;;;;;;;;17.77;69.47;99267.34;2365469;74;51545;-76
2023/01/09 01:56:46;;;;;;;;;;;;;;;17.77;69.40;99251.80;2365603;74;51460;-76
2023/01/09 01:59:51;;;;;;;;;;;;;;;17.79;69.33;99249.26;2365672;74;51538;-76
2023/01/09 02:02:53;;;;;;;;;;;;;;;17.80;69.43;99234.86;2365668;74;50372;-76
2023/01/09 02:05:55;;;;;;;;;;;;;;;17.81;69.31;99228.99;2340455;75;49635;-76
2023/01/09 02:08:56;;;;;;;;;;;;;;;17.80;69.38;99232.68;2365831;74;50700;-76
2023/01/09 02:11:59;;;;;;;;;;;;;;;17.80;69.36;99228.17;2349722;74;50168;-76
2023/01/09 02:15:04;;;;;;;;;;;;;;;17.79;69.34;99235.03;2378891;73;50297;-76
2023/01/09 02:18:10;;;;;;;;;;;;;;;17.78;69.38;99244.11;2367426;74;52542;-75
2023/01/09 02:21:26;;;;;;;;;;;;;;;17.78;69.24;99245.44;2365768;75;50675;-75
2023/01/09 02:24:38;;;;;;;;;;;;;;;17.79;69.18;99252.42;2365527;74;51384;-75
2023/01/09 02:27:58;;;;;;;;;;;;;;;17.76;69.24;99239.48;2365794;75;51526;-75
2023/01/09 02:31:07;;;;;;;;;;;;;;;17.73;69.10;99243.92;2340529;75;52575;-76
2023/01/09 02:34:10;;;;;;;;;;;;;;;17.74;69.08;99235.66;2365757;74;51575;-76
2023/01/09 02:37:22;;;;;;;;;;;;;;;17.78;69.08;99238.23;2365725;73;51479;-76
2023/01/09 02:40:32;;;;;;;;;;;;;;;17.82;68.95;99244.00;2355396;74;49482;-76
2023/01/09 02:43:33;;;;;;;;;;;;;;;17.79;68.95;99247.07;2356760;74;51742;-76
2023/01/09 02:46:35;;;;;;;;;;;;;;;17.77;68.94;99238.43;2368104;74;51388;-76
2023/01/09 02:49:37;;;;;;;;;;;;;;;17.76;69.01;99239.48;2365633;75;51597;-76
2023/01/09 02:52:58;;;;;;;;;;;;;;;17.75;69.14;99237.33;2364983;74;50666;-76
2023/01/09 02:56:02;;;;;;;;;;;;;;;17.75;69.00;99227.95;2340460;75;51382;-76
2023/01/09 02:59:08;;;;;;;;;;;;;;;17.75;69.26;99233.31;2365553;74;52308;-76
2023/01/09 03:02:21;;;;;;;;;;;;;;;17.75;69.14;99227.11;2365394;74;50793;-76
2023/01/09 03:05:24;;;;;;;;;;;;;;;17.75;69.10;99224.44;2365776;74;50836;-76
2023/01/09 03:08:33;;;;;;;;;;;;;;;17.76;69.21;99226.91;2349585;73;51827;-76
2023/01/09 03:11:36;;;;;;;;;;;;;;;17.76;69.16;99220.75;2368032;74;51471;-76
2023/01/09 03:14:39;;;;;;;;;;;;;;;17.77;69.05;99221.04;2332991;75;50723;-76
2023/01/09 03:17:42;;;;;;;;;;;;;;;17.77;68.92;99223.19;2332086;76;50402;-76
2023/01/09 03:20:43;;;;;;;;;;;;;;;17.77;68.91;99218.36;2308098;75;51127;-77
2023/01/09 03:23:47;;;;;;;;;;;;;;;17.75;69.10;99210.57;2331869;76;51463;-76
2023/01/09 03:26:48;;;;;;;;;;;;;;;17.75;69.19;99206.55;2332631;74;50777;-76
2023/01/09 03:29:52;;;;;;;;;;;;;;;17.74;69.09;99201.41;2332221;75;51681;-76
2023/01/09 03:32:53;;;;;;;;;;;;;;;17.74;69.15;99196.88;2334010;75;24639;-75
2023/01/09 03:35:54;;;;;;;;;;;;;;;17.75;69.14;99196.34;2332221;75;50193;-76
2023/01/09 03:38:56;;;;;;;;;;;;;;;17.72;69.13;99196.25;2333811;75;50202;-76
2023/01/09 03:41:58;;;;;;;;;;;;;;;17.74;69.18;99190.70;2362588;74;50694;-76
2023/01/09 03:44:59;;;;;;;;;;;;;;;17.75;69.19;99183.81;2302186;76;50023;-76
2023/01/09 03:48:01;;;;;;;;;;;;;;;17.78;69.19;99175.88;2329566;76;52309;-76
2023/01/09 03:51:02;;;;;;;;;;;;;;;17.79;69.08;99167.66;2329818;76;50366;-76
2023/01/09 03:54:04;;;;;;;;;;;;;;;17.78;69.13;99170.53;2331402;76;50752;-76
2023/01/09 03:57:06;;;;;;;;;;;;;;;17.77;69.19;99172.88;2331816;76;51602;-75
2023/01/09 04:00:08;;;;;;;;;;;;;;;17.76;69.21;99171.25;2305492;76;50987;-76
2023/01/09 04:03:10;;;;;;;;;;;;;;;17.76;69.21;99165.91;2331845;76;51547;-75
2023/01/09 04:06:11;;;;;;;;;;;;;;;17.73;69.10;99164.48;2330004;76;51557;-75
2023/01/09 04:09:13;;;;;;;;;;;;;;;17.74;69.16;99170.64;2305353;76;51550;-75
2023/01/09 04:12:14;;;;;;;;;;;;;;;17.70;68.96;99160.05;2345356;75;51504;-75
2023/01/09 04:15:16;;;;;;;;;;;;;;;17.69;68.99;99159.23;2332269;75;50272;-76
2023/01/09 04:18:18;;;;;;;;;;;;;;;17.73;68.80;99150.28;2334039;75;51507;-76
2023/01/09 04:21:19;;;;;;;;;;;;;;;17.72;68.80;99149.97;2307738;76;52556;-75
2023/01/09 04:24:21;;;;;;;;;;;;;;;17.71;68.78;99148.34;2334262;75;50357;-75
2023/01/09 04:27:22;;;;;;;;;;;;;;;17.70;68.87;99149.35;2334526;75;50320;-76
2023/01/09 04:30:24;;;;;;;;;;;;;;;17.71;68.73;99159.03;2334266;75;51463;-77
2023/01/09 04:33:25;;;;;;;;;;;;;;;17.72;68.78;99155.31;2308157;76;52374;-76
2023/01/09 04:36:27;;;;;;;;;;;;;;;17.70;68.84;99151.53;2332396;76;50186;-76
2023/01/09 04:39:29;;;;;;;;;;;;;;;17.68;69.07;99145.57;2332794;76;51480;-77
2023/01/09 04:42:30;;;;;;;;;;;;;;;17.69;68.95;99144.52;2362138;74;50709;-74
2023/01/09 04:45:32;;;;;;;;;;;;;;;17.70;69.04;99137.31;2322986;75;51769;-75
2023/01/09 04:48:33;;;;;;;;;;;;;;;17.71;68.84;99141.65;2332637;76;50239;-74
2023/01/09 04:51:35;;;;;;;;;;;;;;;17.70;68.87;99135.48;2332827;76;50215;-73
2023/01/09 04:54:38;;;;;;;;;;;;;;;17.75;68.76;99141.50;2309448;76;50716;-75
2023/01/09 04:57:40;;;;;;;;;;;;;;;17.79;68.68;99140.05;2285929;76;52277;-75
2023/01/09 05:00:41;;;;;;;;;;;;;;;17.81;68.58;99135.34;2309432;76;51897;-74
2023/01/09 05:03:43;;;;;;;;;;;;;;;17.77;68.73;99132.75;2335215;76;51606;-76
2023/01/09 05:06:44;;;;;;;;;;;;;;;17.77;68.76;99128.74;2309489;76;50637;-74
2023/01/09 05:09:46;;;;;;;;;;;;;;;17.75;68.83;99128.12;2340720;74;50952;-74
2023/01/09 05:12:48;;;;;;;;;;;;;;;17.76;68.75;99132.46;2377498;74;50663;-76
2023/01/09 05:15:49;;;;;;;;;;;;;;;17.74;68.81;99121.15;2396296;74;51551;-77
2023/01/09 05:18:55;;;;;;;;;;;;;;;17.74;68.78;99125.98;2401039;73;51400;-75
2023/01/09 05:21:54;;;;;;;;;;;;;;;17.71;68.70;99118.91;2400416;73;22526;-80
2023/01/09 05:24:56;;;;;;;;;;;;;;;17.71;68.84;99113.04;2395963;74;50732;-74
2023/01/09 05:27:58;;;;;;;;;;;;;;;17.74;68.84;99119.29;2372787;74;50081;-75
2023/01/09 05:31:00;;;;;;;;;;;;;;;17.76;68.91;99119.90;2400722;74;50157;-75
2023/01/09 05:34:01;;;;;;;;;;;;;;;17.77;68.74;99116.18;2372648;74;49582;-75
2023/01/09 05:37:03;;;;;;;;;;;;;;;17.74;69.28;99117.14;2396159;74;50391;-75
2023/01/09 05:40:05;;;;;;;;;;;;;;;17.75;68.96;99117.43;2392177;74;50331;-75
2023/01/09 05:43:07;;;;;;;;;;;;;;;17.75;68.66;99116.09;2378284;74;50268;-75
2023/01/09 05:46:08;;;;;;;;;;;;;;;17.73;68.36;99112.31;2349964;75;51709;-74
2023/01/09 05:49:10;;;;;;;;;;;;;;;17.72;68.26;99109.84;2368766;74;50393;-74
2023/01/09 05:52:11;;;;;;;;;;;;;;;17.69;67.78;99106.27;2365648;74;50522;-74
2023/01/09 05:55:13;;;;;;;;;;;;;;;17.70;67.66;99103.38;2367966;74;50361;-73
2023/01/09 05:58:14;;;;;;;;;;;;;;;17.69;68.02;99103.59;2340594;75;51666;-74
2023/01/09 06:01:16;;;;;;;;;;;;;;;17.67;67.70;99097.10;2367902;75;51561;-74
2023/01/09 06:04:18;;;;;;;;;;;;;;;17.64;67.56;99095.67;2365634;75;51448;-74
2023/01/09 06:07:19;;;;;;;;;;;;;;;17.64;67.36;99095.67;2360133;75;51314;-74
2023/01/09 06:10:21;;;;;;;;;;;;;;;17.65;67.43;99096.52;2351879;73;51533;-74
2023/01/09 06:13:22;;;;;;;;;;;;;;;17.62;67.49;99092.91;2389124;73;51425;-74
2023/01/09 06:16:24;;;;;;;;;;;;;;;17.60;67.44;99089.13;2405715;73;50396;-74
2023/01/09 06:19:25;;;;;;;;;;;;;;;17.61;67.31;99084.59;2405909;73;50338;-77
2023/01/09 06:22:27;;;;;;;;;;;;;;;17.59;67.88;99076.78;2377648;73;51184;-74
2023/01/09 06:25:28;;;;;;;;;;;;;;;17.61;68.85;99088.09;2396244;73;50769;-74
2023/01/09 06:28:30;;;;;;;;;;;;;;;17.64;69.16;99077.48;2395931;74;50644;-76
2023/01/09 06:31:32;;;;;;;;;;;;;;;17.71;69.84;99076.11;2400757;73;51899;-73
2023/01/09 06:34:33;;;;;;;;;;;;;;;17.80;67.81;99077.02;2367402;74;51010;-74
2023/01/09 06:37:35;;;;;;;;;;;;;;;17.77;66.27;99083.27;2387138;74;51531;-75
2023/01/09 06:40:36;;;;;;;;;;;;;;;17.78;66.33;99076.89;2378679;74;51573;-73
2023/01/09 06:43:38;;;;;;;;;;;;;;;17.71;67.25;99076.92;2361251;74;51540;-72
2023/01/09 06:46:40;;;;;;;;;;;;;;;17.67;67.87;99066.86;2373578;74;52772;-73
2023/01/09 06:49:41;;;;;;;;;;;;;;;17.67;68.37;99064.19;2387604;74;51516;-73
2023/01/09 06:52:43;;;;;;;;;;;;;;;17.72;68.33;99060.34;2372942;74;51510;-73
2023/01/09 06:55:44;;;;;;;;;;;;;;;17.73;69.04;99059.33;2372989;74;51404;-75
2023/01/09 06:58:46;;;;;;;;;;;;;;;17.71;69.02;99060.88;2345958;73;51712;-74
2023/01/09 07:01:48;;;;;;;;;;;;;;;17.69;68.96;99054.10;2365655;74;51407;-74
2023/01/09 07:04:49;;;;;;;;;;;;;;;17.77;68.34;99066.69;2367426;74;51589;-74
2023/01/09 07:07:51;;;;;;;;;;;;;;;17.87;67.78;99058.74;2367733;74;51546;-74
2023/01/09 07:10:52;;;;;;;;;;;;;;;17.83;67.86;99051.16;2340427;75;50972;-75
2023/01/09 07:13:54;;;;;;;;;;;;;;;17.88;67.52;99042.98;2365371;75;51495;-75
2023/01/09 07:16:55;;;;;;;;;;;;;;;17.88;67.42;99050.52;2364695;75;50248;-75
2023/01/09 07:19:57;;;;;;;;;;;;;;;17.93;67.16;99041.31;2347126;74;50385;-75
2023/01/09 07:22:59;;;;;;;;;;;;;;;17.86;67.19;99041.88;2305817;76;50993;-75
2023/01/09 07:26:00;;;;;;;;;;;;;;;17.79;67.40;99050.44;2334275;75;50327;-75
2023/01/09 07:29:02;;;;;;;;;;;;;;;17.74;67.46;99036.36;2307941;75;52385;-74
2023/01/09 07:32:03;;;;;;;;;;;;;;;17.70;67.54;99047.70;2331608;76;51354;-74
2023/01/09 07:35:05;;;;;;;;;;;;;;;17.68;67.58;99045.79;2307093;76;52531;-76
2023/01/09 07:38:07;;;;;;;;;;;;;;;17.67;67.59;99058.84;2333729;76;51411;-76
2023/01/09 07:41:08;;;;;;;;;;;;;;;17.66;67.60;99063.90;2332014;76;51460;-74
2023/01/09 07:44:10;;;;;;;;;;;;;;;17.67;67.49;99065.53;2331767;75;51401;-74
2023/01/09 07:47:12;;;;;;;;;;;;;;;17.64;67.56;99062.24;2307248;75;52255;-75
2023/01/09 07:50:13;;;;;;;;;;;;;;;17.62;67.57;99062.16;2384925;74;51493;-74
2023/01/09 07:53:15;;;;;;;;;;;;;;;17.60;67.55;99061.58;2400413;74;51522;-74
2023/01/09 07:56:16;;;;;;;;;;;;;;;17.60;67.55;99064.25;2400396;74;50631;-74
2023/01/09 07:59:18;;;;;;;;;;;;;;;17.55;67.63;99070.23;2372259;74;51053;-74
2023/01/09 08:02:20;;;;;;;;;;;;;;;17.54;67.70;99073.92;2400346;74;51517;-75
2023/01/09 08:05:21;;;;;;;;;;;;;;;17.54;67.73;99081.95;2400496;74;50388;-75
2023/01/09 08:08:23;;;;;;;;;;;;;;;17.54;67.66;99083.28;2395911;74;49940;-74
2023/01/09 08:11:25;;;;;;;;;;;;;;;17.59;67.60;99083.46;2400610;73;51549;-74
2023/01/09 08:14:26;;;;;;;;;;;;;;;17.73;67.20;99084.75;2379152;74;51332;-74
2023/01/09 08:17:28;;;;;;;;;;;;;;;17.82;66.96;99080.27;2344044;75;50226;-75
2023/01/09 08:20:29;;;;;;;;;;;;;;;17.86;66.78;99090.04;2373770;74;50376;-75
2023/01/09 08:23:31;;;;;;;;;;;;;;;17.89;66.69;99085.59;2372056;74;52670;-75
2023/01/09 08:26:33;;;;;;;;;;;;;;;17.83;66.72;99087.80;2400587;73;51515;-75
2023/01/09 08:29:34;;;;;;;;;;;;;;;17.83;66.72;99087.80;2400573;74;51417;-75
2023/01/09 08:32:36;;;;;;;;;;;;;;;17.84;66.55;99084.89;2395792;74;51495;-75
2023/01/09 08:35:38;;;;;;;;;;;;;;;17.82;66.65;99087.48;2372922;74;52603;-75
2023/01/09 08:38:39;;;;;;;;;;;;;;;17.81;66.53;99083.17;2396885;73;51548;-75
2023/01/09 08:48:20;;;;;;;;;;;;;;;17.75;66.73;99089.34;2374947;74;22218;-74
2023/01/09 08:51:21;;;;;;;;;;;;;;;17.74;66.73;99091.72;2363909;74;50338;-74
2023/01/09 08:54:23;;;;;;;;;;;;;;;17.74;66.70;99097.08;2367459;74;50615;-74
2023/01/09 08:57:25;;;;;;;;;;;;;;;17.76;66.62;99105.19;2365496;75;50700;-74
2023/01/09 09:00:26;;;;;;;;;;;;;;;17.74;66.59;99107.77;2340431;75;51319;-74
2023/01/09 09:03:28;;;;;;;;;;;;;;;17.70;66.61;99116.76;2365305;74;51477;-74
2023/01/09 09:06:29;;;;;;;;;;;;;;;17.66;66.68;99114.72;2365627;74;50229;-74
2023/01/09 09:09:31;;;;;;;;;;;;;;;17.63;66.72;99111.95;2368067;74;52050;-74
2023/01/09 09:12:33;;;;;;;;;;;;;;;17.59;66.83;99114.74;2340521;75;49589;-74
2023/01/09 09:15:36;;;;;;;;;;;;;;;17.56;66.97;99109.30;2367625;75;50251;-75
2023/01/09 09:18:37;;;;;;;;;;;;;;;17.63;66.80;99116.78;2340452;73;22338;-74
2023/01/09 09:21:39;;;;;;;;;;;;;;;17.68;66.73;99103.30;2380830;74;51450;-74
2023/01/09 09:24:41;;;;;;;;;;;;;;;17.83;66.34;99105.19;2345237;73;52349;-75
2023/01/09 09:27:42;;;;;;;;;;;;;;;17.90;66.07;99118.51;2368451;74;50229;-74
2023/01/09 09:30:44;;;;;;;;;;;;;;;17.95;65.83;99119.50;2367643;74;50484;-74
2023/01/09 09:33:45;;;;;;;;;;;;;;;17.95;65.79;99123.51;2365320;75;49908;-74
2023/01/09 09:36:47;;;;;;;;;;;;;;;17.95;65.75;99128.86;2340489;75;51678;-74
2023/01/09 09:39:48;;;;;;;;;;;;;;;17.94;65.76;99139.80;2365728;75;50618;-74
2023/01/09 09:46:05;;;;;;;;;;;;;;;17.88;65.84;99115.22;2343755;75;22433;-74
2023/01/09 09:49:11;;;;;;;;;;;;;;;17.91;65.80;99138.38;2362203;73;50114;-73
2023/01/09 09:52:14;;;;;;;;;;;;;;;17.85;65.92;99141.89;2402173;73;50283;-75
2023/01/09 09:55:17;;;;;;;;;;;;;;;17.74;66.20;99142.03;2395850;72;50279;-75
2023/01/09 09:58:38;;;;;;;;;;;;;;;17.76;66.20;99137.81;2395780;74;51497;-75
2023/01/09 10:01:40;;;;;;;;;;;;;;;17.83;65.97;99138.63;2372287;74;51814;-74
2023/01/09 10:04:42;;;;;;;;;;;;;;;17.93;65.71;99143.49;2395537;74;50315;-74
2023/01/09 10:07:45;;;;;;;;;;;;;;;17.90;65.76;99146.08;2395919;74;51489;-74
2023/01/09 10:10:49;;;;;;;;;;;;;;;17.91;65.68;99141.58;2395889;74;50447;-73
2023/01/09 10:14:05;;;;;;;;;;;;;;;17.86;65.76;99140.88;2395529;74;50806;-74
2023/01/09 10:17:12;;;;;;;;;;;;;;;17.86;65.76;99136.86;2382033;74;50349;-74
2023/01/09 10:20:21;;;;;;;;;;;;;;;17.86;65.76;99134.19;2349014;73;51534;-74
2023/01/09 10:23:33;;;;;;;;;;;;;;;17.81;65.87;99142.04;2331560;76;50807;-74
2023/01/09 10:26:42;;;;;;;;;;;;;;;17.74;66.15;99141.22;2331752;75;50760;-74
2023/01/09 10:29:50;;;;;;;;;;;;;;;17.69;66.33;99152.55;2332211;74;22717;-74
2023/01/09 10:32:53;;;;;;;;;;;;;;;17.68;66.30;99164.30;2331676;75;50925;-75
2023/01/09 10:36:05;;;;;;;;;;;;;;;17.84;65.92;99164.34;2332101;74;50686;-75
2023/01/09 10:39:08;;;;;;;;;;;;;;;17.96;65.51;99165.84;2307571;76;50106;-75
2023/01/09 10:42:15;;;;;;;;;;;;;;;18.00;65.33;99167.84;2331591;76;50244;-75
2023/01/09 10:45:17;;;;;;;;;;;;;;;18.01;65.21;99160.13;2332055;76;49927;-75
2023/01/09 10:48:27;;;;;;;;;;;;;;;18.03;65.15;99158.56;2352619;74;50468;-75
2023/01/09 10:51:33;;;;;;;;;;;;;;;17.99;65.26;99166.73;2352750;74;50924;-75
2023/01/09 10:54:34;;;;;;;;;;;;;;;17.94;65.40;99186.11;2375260;73;50224;-75
2023/01/09 10:57:43;;;;;;;;;;;;;;;17.91;65.48;99181.71;2365751;75;50210;-75
2023/01/09 11:00:44;;;;;;;;;;;;;;;17.89;65.52;99177.09;2365638;74;51485;-75
2023/01/09 11:03:46;;;;;;;;;;;;;;;17.80;65.81;99183.19;2340241;75;51320;-75
2023/01/09 11:06:49;;;;;;;;;;;;;;;17.75;65.91;99191.00;2365685;74;51515;-75
2023/01/09 11:09:52;;;;;;;;;;;;;;;17.77;65.91;99203.65;2365754;74;50695;-75
2023/01/09 11:12:56;;;;;;;;;;;;;;;17.87;65.63;99202.70;2363798;74;50455;-74
2023/01/09 11:16:05;;;;;;;;;;;;;;;17.96;65.40;99208.13;2365619;73;50411;-75
2023/01/09 11:19:08;;;;;;;;;;;;;;;17.97;65.23;99200.39;2375675;74;51502;-76
2023/01/09 11:22:16;;;;;;;;;;;;;;;17.99;65.17;99203.68;2397028;73;51529;-74
2023/01/09 11:25:19;;;;;;;;;;;;;;;17.97;65.16;99209.76;2395775;74;50668;-74
2023/01/09 11:28:20;;;;;;;;;;;;;;;17.95;65.26;99218.52;2372707;73;51147;-74
2023/01/09 11:31:23;;;;;;;;;;;;;;;17.95;65.23;99216.36;2395823;74;50285;-74
2023/01/09 11:34:25;;;;;;;;;;;;;;;17.92;65.23;99220.28;2395487;74;51542;-74
2023/01/09 11:37:30;;;;;;;;;;;;;;;17.91;65.33;99229.88;2395860;74;50667;-74
2023/01/09 11:40:33;;;;;;;;;;;;;;;17.82;65.52;99236.78;2372443;74;52023;-75
2023/01/09 11:43:37;;;;;;;;;;;;;;;17.77;65.71;99243.26;2395640;74;51557;-75
2023/01/09 11:46:41;;;;;;;;;;;;;;;17.78;65.76;99242.77;2392779;74;51625;-75
2023/01/09 11:49:45;;;;;;;;;;;;;;;17.93;65.36;99238.49;2361078;74;50354;-75
2023/01/09 11:52:46;;;;;;;;;;;;;;;18.02;65.05;99232.69;2365674;74;22341;-75
2023/01/09 11:55:49;;;;;;;;;;;;;;;18.09;64.87;99237.20;2365611;75;49987;-75
2023/01/09 11:58:51;;;;;;;;;;;;;;;18.09;64.73;99229.98;2365630;74;50258;-75
2023/01/09 12:01:57;;;;;;;;;;;;;;;18.11;64.64;99241.80;2365594;74;51497;-76
2023/01/09 12:05:16;;;;;;;;;;;;;;;18.10;64.64;99247.67;2340058;74;51713;-75
2023/01/09 12:08:19;;;;;;;;;;;;;;;18.08;64.73;99262.31;2365611;73;50233;-75
2023/01/09 12:11:28;;;;;;;;;;;;;;;18.05;64.73;99265.71;2365592;74;50301;-75
2023/01/09 12:14:38;;;;;;;;;;;;;;;18.03;64.76;99265.12;2365341;74;52515;-73
2023/01/09 12:17:44;;;;;;;;;;;;;;;17.93;65.08;99277.30;2359854;74;52544;-75
2023/01/09 12:20:47;;;;;;;;;;;;;;;17.82;65.37;99287.63;2399474;72;50475;-74
2023/01/09 12:23:53;;;;;;;;;;;;;;;17.87;65.35;99280.30;2404269;72;50429;-75
2023/01/09 12:26:59;;;;;;;;;;;;;;;17.99;64.96;99281.30;2404707;74;52135;-75
2023/01/09 12:30:03;;;;;;;;;;;;;;;18.06;64.74;99278.08;2381177;74;51205;-75
2023/01/09 12:33:06;;;;;;;;;;;;;;;18.11;64.56;99273.43;2395902;74;51523;-74
2023/01/09 12:36:19;;;;;;;;;;;;;;;18.11;64.49;99264.55;2395666;73;51428;-74
2023/01/09 12:39:25;;;;;;;;;;;;;;;18.10;64.52;99274.97;2395574;73;50259;-74
2023/01/09 12:42:28;;;;;;;;;;;;;;;18.08;64.55;99271.67;2395596;74;50680;-75
2023/01/09 12:45:34;;;;;;;;;;;;;;;18.04;64.62;99277.98;2395823;74;50420;-75
2023/01/09 12:48:37;;;;;;;;;;;;;;;17.99;64.71;99275.13;2388926;74;50651;-74
2023/01/09 12:51:45;;;;;;;;;;;;;;;17.92;64.97;99277.81;2332091;74;50653;-74
2023/01/09 12:54:49;;;;;;;;;;;;;;;17.81;65.25;99280.64;2331717;75;51446;-75
2023/01/09 12:57:51;;;;;;;;;;;;;;;17.81;65.36;99281.16;2332369;74;51588;-75
2023/01/09 13:00:52;;;;;;;;;;;;;;;17.95;64.93;99284.08;2332040;76;50296;-74
2023/01/09 13:04:11;;;;;;;;;;;;;;;18.04;64.65;99288.17;2331733;76;50688;-75
2023/01/09 13:07:17;;;;;;;;;;;;;;;18.10;64.46;99287.02;2332511;74;50615;-75
2023/01/09 13:10:20;;;;;;;;;;;;;;;18.09;64.33;99282.19;2308402;76;51000;-75
2023/01/09 13:13:35;;;;;;;;;;;;;;;18.08;64.38;99285.88;2331738;76;51455;-75
2023/01/09 13:16:40;;;;;;;;;;;;;;;18.06;64.42;99298.16;2332541;75;50248;-75
2023/01/09 13:19:42;;;;;;;;;;;;;;;18.03;64.49;99297.25;2370856;74;50294;-75
2023/01/09 13:22:48;;;;;;;;;;;;;;;18.03;64.43;99290.55;2371684;74;51156;-75
2023/01/09 13:25:48;;;;;;;;;;;;;;;17.94;64.74;99289.66;2395606;74;22386;-75
2023/01/09 13:28:52;;;;;;;;;;;;;;;17.84;64.98;99288.23;2395516;73;51495;-75
2023/01/09 13:32:13;;;;;;;;;;;;;;;17.81;65.13;99290.53;2395425;74;50250;-75
2023/01/09 13:35:15;;;;;;;;;;;;;;;17.91;64.94;99294.11;2395934;74;49998;-74
2023/01/09 13:38:17;;;;;;;;;;;;;;;17.99;64.69;99284.49;2395886;74;51456;-77
2023/01/09 13:44:38;;;;;;;;;;;;;;;18.11;64.29;99287.31;2396058;74;24309;-74
2023/01/09 13:47:40;;;;;;;;;;;;;;;18.10;64.23;99286.49;2348255;74;52593;-74
2023/01/09 13:50:42;;;;;;;;;;;;;;;18.06;64.32;99292.80;2388741;74;51455;-74
2023/01/09 13:53:44;;;;;;;;;;;;;;;18.07;64.27;99292.28;2395568;74;50698;-74
2023/01/09 13:57:04;;;;;;;;;;;;;;;18.02;64.37;99298.27;2395935;74;51437;-74
2023/01/09 14:00:13;;;;;;;;;;;;;;;17.96;64.53;99310.34;2372479;74;52341;-74
2023/01/09 14:03:20;;;;;;;;;;;;;;;17.88;64.76;99316.75;2395763;74;51474;-74
2023/01/09 14:06:23;;;;;;;;;;;;;;;17.79;65.04;99330.02;2400589;74;51600;-75
2023/01/09 14:09:24;;;;;;;;;;;;;;;17.80;65.08;99345.05;2395935;74;50713;-76
2023/01/09 14:12:26;;;;;;;;;;;;;;;17.90;64.86;99350.79;2372156;73;51716;-75
2023/01/09 14:15:35;;;;;;;;;;;;;;;18.01;64.54;99357.38;2395948;74;50355;-75
2023/01/09 14:18:41;;;;;;;;;;;;;;;18.05;64.32;99357.23;2368292;74;51605;-75
2023/01/09 14:21:44;;;;;;;;;;;;;;;18.09;64.16;99357.13;2380861;74;50867;-76
2023/01/09 14:24:48;;;;;;;;;;;;;;;18.08;64.16;99363.50;2341787;74;52581;-75
2023/01/09 14:27:56;;;;;;;;;;;;;;;18.07;64.17;99369.91;2366177;73;21710;-75
2023/01/09 14:31:00;;;;;;;;;;;;;;;18.03;64.28;99375.36;2365918;74;51612;-75
2023/01/09 14:34:19;;;;;;;;;;;;;;;17.99;64.32;99378.17;2365430;74;51355;-75
2023/01/09 14:37:20;;;;;;;;;;;;;;;17.93;64.48;99380.33;2368151;74;22329;-75
2023/01/09 14:40:22;;;;;;;;;;;;;;;17.83;64.79;99390.14;2366090;75;51498;-75
2023/01/09 14:43:25;;;;;;;;;;;;;;;17.80;64.94;99391.87;2365600;74;50316;-75
2023/01/09 14:46:28;;;;;;;;;;;;;;;17.90;64.77;99401.63;2365985;75;50220;-75
2023/01/09 14:49:35;;;;;;;;;;;;;;;17.98;64.53;99412.14;2335266;74;51253;-75
2023/01/09 14:52:50;;;;;;;;;;;;;;;18.08;64.23;99413.55;2385964;72;51536;-75
2023/01/09 14:55:56;;;;;;;;;;;;;;;18.17;63.97;99413.64;2369460;74;50908;-75
2023/01/09 14:59:04;;;;;;;;;;;;;;;18.15;63.94;99416.52;2368726;74;50655;-76
2023/01/09 15:02:07;;;;;;;;;;;;;;;18.13;63.94;99419.09;2368118;74;50557;-75
2023/01/09 15:05:13;;;;;;;;;;;;;;;18.11;64.00;99422.48;2366266;74;51478;-75
2023/01/09 15:08:16;;;;;;;;;;;;;;;18.09;63.99;99425.92;2366016;73;51473;-74
2023/01/09 15:11:18;;;;;;;;;;;;;;;18.09;64.03;99417.89;2369385;75;50784;-75
2023/01/09 15:14:21;;;;;;;;;;;;;;;18.03;64.10;99419.03;2366633;74;50715;-75
2023/01/09 15:17:26;;;;;;;;;;;;;;;17.97;64.20;99414.50;2362955;75;51503;-74
2023/01/09 15:20:28;;;;;;;;;;;;;;;17.89;64.53;99429.44;2305613;75;51465;-74
2023/01/09 15:23:30;;;;;;;;;;;;;;;17.96;64.40;99430.26;2337410;75;50034;-75
2023/01/09 15:26:32;;;;;;;;;;;;;;;18.06;64.14;99443.22;2342225;75;51673;-75
2023/01/09 15:29:33;;;;;;;;;;;;;;;18.12;63.90;99439.69;2348999;74;52342;-75
2023/01/09 15:32:35;;;;;;;;;;;;;;;18.13;63.85;99448.54;2331996;75;51394;-75
2023/01/09 15:35:43;;;;;;;;;;;;;;;18.09;63.88;99459.37;2356607;75;51473;-75
2023/01/09 15:38:45;;;;;;;;;;;;;;;18.08;63.95;99461.73;2340944;75;51043;-75
2023/01/09 15:45:06;;;;;;;;;;;;;;;17.96;64.28;99467.73;2372872;73;22452;-76
2023/01/09 15:48:15;;;;;;;;;;;;;;;17.92;64.36;99463.80;2374397;73;49760;-75
2023/01/09 15:51:17;;;;;;;;;;;;;;;17.87;64.43;99458.25;2333868;75;52442;-75
2023/01/09 15:54:34;;;;;;;;;;;;;;;17.86;64.56;99464.65;2331780;76;50660;-75
2023/01/09 15:57:34;;;;;;;;;;;;;;;17.92;64.47;99475.03;2340324;73;23289;-75
2023/01/09 16:00:38;;;;;;;;;;;;;;;18.02;64.19;99471.42;2349593;74;22394;-75
2023/01/09 16:03:39;;;;;;;;;;;;;;;18.14;63.88;99483.14;2321479;74;22239;-75
2023/01/09 16:06:46;;;;;;;;;;;;;;;18.22;63.62;99487.45;2292641;77;50289;-75
2023/01/09 16:09:48;;;;;;;;;;;;;;;18.27;63.49;99486.31;2363884;75;50288;-76
2023/01/09 16:12:51;;;;;;;;;;;;;;;18.24;63.52;99492.91;2345917;75;50693;-75
2023/01/09 16:15:53;;;;;;;;;;;;;;;18.18;64.20;99492.91;2296984;76;51100;-76